createdAt,value
2022-11-09T00:02:02.761Z,100.00
2022-11-09T00:05:06.059Z,100.00
2022-11-09T00:08:10.569Z,100.00
2022-11-09T00:11:13.457Z,100.00
2022-11-09T00:14:17.714Z,100.00
2022-11-09T00:17:20.402Z,100.00
2022-11-09T00:20:23.222Z,100.00
2022-11-09T00:23:25.886Z,99.77
2022-11-09T00:26:28.627Z,99.81
2022-11-09T00:29:31.398Z,99.87
2022-11-09T00:32:34.152Z,100.00
2022-11-09T00:35:38.862Z,99.39
2022-11-09T00:38:42.626Z,98.98
2022-11-09T00:41:45.270Z,100.00
2022-11-09T00:44:47.992Z,99.74
2022-11-09T00:47:50.690Z,99.77
2022-11-09T00:50:55.039Z,99.78
2022-11-09T00:53:58.636Z,100.00
2022-11-09T00:57:01.505Z,100.00
2022-11-09T01:00:05.802Z,100.00
2022-11-09T01:03:08.612Z,100.00
2022-11-09T01:06:25.605Z,100.00
2022-11-09T01:09:28.440Z,100.00
2022-11-09T01:12:31.255Z,100.00
2022-11-09T01:15:33.938Z,100.00
2022-11-09T01:18:39.985Z,100.00
2022-11-09T01:21:42.783Z,100.00
2022-11-09T01:24:46.174Z,100.00
2022-11-09T01:27:48.921Z,100.00
2022-11-09T01:30:51.666Z,100.00
2022-11-09T01:33:55.283Z,100.00
2022-11-09T01:36:58.187Z,100.00
2022-11-09T01:40:01.076Z,100.00
2022-11-09T01:43:23.559Z,100.00
2022-11-09T01:46:49.721Z,99.89
2022-11-09T01:50:00.327Z,100.00
2022-11-09T01:53:05.666Z,100.00
2022-11-09T01:56:11.580Z,100.00
2022-11-09T01:59:22.745Z,99.81
2022-11-09T02:02:26.078Z,99.92
2022-11-09T02:05:32.244Z,99.92
2022-11-09T02:08:35.096Z,99.92
2022-11-09T02:11:38.471Z,100.00
2022-11-09T02:14:41.827Z,100.00
2022-11-09T02:17:45.745Z,100.00
2022-11-09T02:20:51.705Z,100.00
2022-11-09T02:23:54.483Z,100.00
2022-11-09T02:26:59.442Z,100.00
2022-11-09T02:30:03.566Z,100.00
2022-11-09T02:33:06.583Z,100.00
2022-11-09T02:36:09.761Z,100.00
2022-11-09T02:39:15.379Z,100.00
2022-11-09T02:42:21.633Z,100.00
2022-11-09T02:45:27.409Z,100.00
2022-11-09T02:48:30.568Z,100.00
2022-11-09T02:51:33.970Z,100.00
2022-11-09T02:54:36.920Z,100.00
2022-11-09T02:57:41.087Z,100.00
2022-11-09T03:00:45.890Z,100.00
2022-11-09T03:03:49.819Z,100.00
2022-11-09T03:06:52.743Z,100.00
2022-11-09T03:09:55.925Z,100.00
2022-11-09T03:13:00.776Z,100.00
2022-11-09T03:16:05.677Z,100.00
2022-11-09T03:19:11.777Z,100.00
2022-11-09T03:22:14.981Z,100.00
2022-11-09T03:25:21.085Z,100.00
2022-11-09T03:28:25.008Z,100.00
2022-11-09T03:31:29.054Z,100.00
2022-11-09T03:34:33.309Z,100.00
2022-11-09T03:37:36.567Z,100.00
2022-11-09T03:40:40.437Z,100.00
2022-11-09T03:43:43.337Z,100.00
2022-11-09T03:46:46.176Z,100.00
2022-11-09T03:49:48.934Z,100.00
2022-11-09T03:52:51.577Z,100.00
2022-11-09T03:55:54.285Z,100.00
2022-11-09T03:58:57.069Z,100.00
2022-11-09T04:01:59.933Z,100.00
2022-11-09T04:05:02.825Z,100.00
2022-11-09T04:08:05.712Z,100.00
2022-11-09T04:11:08.378Z,100.00
2022-11-09T04:14:11.065Z,100.00
2022-11-09T04:17:13.736Z,100.00
2022-11-09T04:20:17.008Z,100.00
2022-11-09T04:23:20.032Z,100.00
2022-11-09T04:26:22.865Z,100.00
2022-11-09T04:29:25.651Z,100.00
2022-11-09T04:32:28.332Z,100.00
2022-11-09T04:35:33.453Z,100.00
2022-11-09T04:38:36.673Z,100.00
2022-11-09T04:41:39.388Z,100.00
2022-11-09T04:44:48.733Z,100.00
2022-11-09T04:47:51.405Z,100.00
2022-11-09T04:51:00.520Z,100.00
2022-11-09T04:54:03.224Z,100.00
2022-11-09T04:57:05.983Z,100.00
2022-11-09T05:00:09.447Z,100.00
2022-11-09T05:03:12.273Z,100.00
2022-11-09T05:06:33.410Z,100.00
2022-11-09T05:09:36.321Z,100.00
2022-11-09T05:12:42.223Z,100.00
2022-11-09T05:15:47.616Z,100.00
2022-11-09T05:18:51.038Z,100.00
2022-11-09T05:21:53.678Z,100.00
2022-11-09T05:24:56.455Z,100.00
2022-11-09T05:27:59.378Z,100.00
2022-11-09T05:31:02.230Z,100.00
2022-11-09T05:34:06.619Z,100.00
2022-11-09T05:37:09.309Z,99.80
2022-11-09T05:40:12.151Z,99.98
2022-11-09T05:43:15.011Z,100.00
2022-11-09T05:46:19.045Z,100.00
2022-11-09T05:49:21.844Z,100.00
2022-11-09T05:52:24.546Z,100.00
2022-11-09T05:55:28.070Z,100.00
2022-11-09T05:58:33.202Z,100.00
2022-11-09T06:01:36.051Z,100.00
2022-11-09T06:04:38.845Z,100.00
2022-11-09T06:07:41.576Z,100.00
2022-11-09T06:10:44.425Z,100.00
2022-11-09T06:13:47.111Z,100.00
2022-11-09T06:16:49.880Z,100.00
2022-11-09T06:19:52.897Z,100.00
2022-11-09T06:23:02.440Z,100.00
2022-11-09T06:26:10.016Z,100.00
2022-11-09T06:29:12.970Z,100.00
2022-11-09T06:32:15.670Z,100.00
2022-11-09T06:35:18.444Z,100.00
2022-11-09T06:38:21.347Z,100.00
2022-11-09T06:41:24.019Z,100.00
2022-11-09T06:44:26.812Z,100.00
2022-11-09T06:47:29.818Z,100.00
2022-11-09T06:50:33.922Z,100.00
2022-11-09T06:53:38.047Z,100.00
2022-11-09T06:56:40.861Z,100.00
2022-11-09T06:59:44.836Z,100.00
2022-11-09T07:02:49.841Z,99.55
2022-11-09T07:05:53.484Z,98.41
2022-11-09T07:08:57.302Z,98.45
2022-11-09T07:12:00.244Z,98.03
2022-11-09T07:15:04.061Z,98.34
2022-11-09T07:18:10.423Z,99.25
2022-11-09T07:21:14.537Z,99.18
2022-11-09T07:24:17.488Z,98.24
2022-11-09T07:27:24.857Z,97.32
2022-11-09T07:30:30.232Z,96.41
2022-11-09T07:33:33.923Z,94.92
2022-11-09T07:36:39.362Z,95.42
2022-11-09T07:39:42.323Z,95.85
2022-11-09T07:42:45.380Z,95.44
2022-11-09T07:45:48.360Z,94.83
2022-11-09T07:48:51.209Z,95.59
2022-11-09T07:51:54.736Z,94.46
2022-11-09T07:54:57.762Z,93.59
2022-11-09T07:58:03.967Z,93.99
2022-11-09T08:01:08.662Z,93.38
2022-11-09T08:04:11.550Z,93.79
2022-11-09T08:07:14.772Z,93.59
2022-11-09T08:10:17.585Z,91.93
2022-11-09T08:13:20.863Z,92.14
2022-11-09T08:16:24.317Z,91.61
2022-11-09T08:19:27.027Z,91.71
2022-11-09T08:22:29.773Z,92.19
2022-11-09T08:25:34.488Z,92.45
2022-11-09T08:28:37.796Z,92.02
2022-11-09T08:31:40.656Z,91.76
2022-11-09T08:34:47.831Z,92.51
2022-11-09T08:37:52.436Z,93.55
2022-11-09T08:40:59.122Z,92.74
2022-11-09T08:44:04.079Z,94.56
2022-11-09T08:47:06.853Z,94.97
2022-11-09T08:50:11.013Z,94.33
2022-11-09T08:53:13.674Z,93.66
2022-11-09T08:56:18.584Z,94.34
2022-11-09T08:59:21.379Z,92.60
2022-11-09T09:02:24.661Z,92.29
2022-11-09T09:05:27.409Z,92.23
2022-11-09T09:08:30.218Z,91.82
2022-11-09T09:11:34.390Z,92.62
2022-11-09T09:14:37.827Z,93.35
2022-11-09T09:17:41.558Z,91.08
2022-11-09T09:20:45.445Z,91.54
2022-11-09T09:23:49.542Z,91.57
2022-11-09T09:26:52.267Z,91.21
2022-11-09T09:29:55.141Z,89.76
2022-11-09T09:33:00.442Z,88.12
2022-11-09T09:36:03.589Z,88.03
2022-11-09T09:39:06.391Z,87.42
2022-11-09T09:42:17.500Z,87.61
2022-11-09T09:45:33.972Z,86.13
2022-11-09T09:48:40.150Z,85.86
2022-11-09T09:51:53.955Z,84.01
2022-11-09T09:55:10.320Z,85.45
2022-11-09T09:58:19.542Z,85.13
2022-11-09T10:01:28.406Z,85.04
2022-11-09T10:04:41.855Z,84.79
2022-11-09T10:07:53.888Z,83.31
2022-11-09T10:11:08.548Z,79.14
2022-11-09T10:14:26.440Z,76.49
2022-11-09T10:17:40.198Z,77.57
2022-11-09T10:21:04.950Z,79.32
2022-11-09T10:24:23.032Z,78.81
2022-11-09T10:27:35.638Z,79.34
2022-11-09T10:30:40.026Z,80.44
2022-11-09T10:33:58.235Z,81.36
2022-11-09T10:37:12.912Z,81.74
2022-11-09T10:40:37.592Z,82.66
2022-11-09T10:43:59.077Z,83.62
2022-11-09T10:47:26.389Z,80.11
2022-11-09T10:50:54.481Z,77.59
2022-11-09T10:54:32.430Z,78.25
2022-11-09T10:58:13.040Z,78.11
2022-11-09T11:01:39.560Z,80.87
2022-11-09T11:05:07.207Z,79.21
2022-11-09T11:08:38.656Z,76.96
2022-11-09T11:12:17.640Z,67.32
2022-11-09T11:15:41.944Z,70.19
2022-11-09T11:19:06.346Z,74.85
2022-11-09T11:22:29.685Z,73.62
2022-11-09T11:25:56.208Z,75.66
2022-11-09T11:29:35.890Z,68.94
2022-11-09T11:32:57.856Z,60.76
2022-11-09T11:36:28.075Z,57.04
2022-11-09T11:40:19.529Z,57.21
2022-11-09T11:43:56.073Z,55.59
2022-11-09T11:47:39.432Z,60.90
2022-11-09T11:51:18.253Z,67.88
2022-11-09T11:55:14.727Z,71.27
2022-11-09T11:59:05.866Z,71.54
2022-11-09T12:02:51.486Z,74.90
2022-11-09T12:06:15.718Z,74.98
2022-11-09T12:09:53.175Z,64.51
2022-11-09T12:13:30.145Z,58.60
2022-11-09T12:16:59.718Z,54.03
2022-11-09T12:20:34.457Z,57.53
2022-11-09T12:24:15.990Z,54.23
2022-11-09T12:27:43.521Z,58.85
2022-11-09T12:31:10.561Z,61.62
2022-11-09T12:34:48.212Z,61.12
2022-11-09T12:39:16.273Z,64.58
2022-11-09T12:43:05.234Z,65.57
2022-11-09T12:46:40.389Z,69.21
2022-11-09T12:50:02.220Z,72.34
2022-11-09T12:53:28.169Z,72.93
2022-11-09T12:57:03.684Z,72.09
2022-11-09T13:00:34.266Z,71.72
2022-11-09T13:03:58.677Z,71.97
2022-11-09T13:07:33.372Z,71.53
2022-11-09T13:11:19.141Z,72.31
2022-11-09T13:14:41.388Z,74.45
2022-11-09T13:18:06.061Z,73.81
2022-11-09T13:21:27.812Z,73.93
2022-11-09T13:24:49.000Z,77.37
2022-11-09T13:29:07.954Z,77.66
2022-11-09T13:36:42.424Z,83.47
2022-11-09T13:40:31.947Z,83.70
2022-11-09T13:44:27.083Z,81.78
2022-11-09T13:47:52.189Z,81.20
2022-11-09T13:51:20.208Z,81.28
2022-11-09T13:54:44.578Z,81.03
2022-11-09T13:58:30.685Z,81.27
2022-11-09T14:01:54.093Z,81.14
2022-11-09T14:05:34.811Z,81.47
2022-11-09T14:08:57.740Z,83.25
2022-11-09T14:12:43.368Z,83.80
2022-11-09T14:16:50.156Z,84.42
2022-11-09T14:20:42.276Z,85.97
2022-11-09T14:24:23.879Z,85.99
2022-11-09T14:27:58.587Z,85.75
2022-11-09T14:31:33.967Z,86.38
2022-11-09T14:35:37.434Z,86.82
2022-11-09T14:39:03.806Z,87.26
2022-11-09T14:42:25.366Z,87.57
2022-11-09T15:01:20.474Z,88.03
2022-11-09T15:05:02.703Z,87.91
2022-11-09T15:08:23.924Z,88.05
2022-11-09T15:11:46.783Z,87.80
2022-11-09T15:15:19.458Z,88.23
2022-11-09T15:18:46.201Z,89.17
2022-11-09T15:22:45.621Z,89.25
2022-11-09T15:26:25.925Z,88.93
2022-11-09T15:29:51.032Z,89.10
2022-11-09T15:33:20.303Z,89.49
2022-11-09T15:36:46.114Z,90.21
2022-11-09T15:40:19.362Z,90.21
2022-11-09T15:43:41.821Z,89.61
2022-11-09T15:47:04.061Z,89.47
2022-11-09T15:50:27.385Z,89.21
2022-11-09T15:53:48.920Z,89.24
2022-11-09T15:57:16.348Z,89.15
2022-11-09T16:00:37.760Z,89.29
2022-11-09T16:03:59.028Z,89.11
2022-11-09T16:07:20.631Z,89.18
2022-11-09T16:10:44.487Z,89.75
2022-11-09T16:14:06.007Z,89.04
2022-11-09T16:17:29.335Z,90.23
2022-11-09T16:20:50.763Z,89.94
2022-11-09T16:24:12.014Z,90.53
2022-11-09T16:27:49.744Z,90.98
2022-11-09T16:31:13.168Z,90.46
2022-11-09T16:34:34.284Z,90.52
2022-11-09T16:37:57.584Z,90.26
2022-11-09T16:41:19.946Z,90.56
2022-11-09T16:44:43.106Z,90.13
2022-11-09T16:48:11.391Z,90.01
2022-11-09T16:51:33.024Z,89.80
2022-11-09T16:54:54.701Z,90.43
2022-11-09T16:58:16.026Z,90.35
2022-11-09T17:01:37.682Z,90.08
2022-11-09T17:04:58.790Z,90.06
2022-11-09T17:08:20.883Z,90.60
2022-11-09T17:11:42.112Z,90.96
2022-11-09T17:15:03.597Z,90.61
2022-11-09T17:18:25.130Z,90.68
2022-11-09T17:21:46.946Z,90.34
2022-11-09T17:25:09.421Z,90.24
2022-11-09T17:28:31.651Z,90.11
2022-11-09T17:31:53.497Z,90.42
2022-11-09T17:35:14.679Z,90.46
2022-11-09T17:38:36.076Z,90.27
2022-11-09T17:41:57.377Z,89.86
2022-11-09T17:45:18.789Z,90.48
2022-11-09T17:48:42.171Z,90.11
2022-11-09T17:52:03.569Z,90.08
2022-11-09T17:55:25.178Z,89.92
2022-11-09T17:58:47.404Z,90.38
2022-11-09T18:02:10.698Z,90.90
2022-11-09T18:05:32.066Z,89.54
2022-11-09T18:09:19.280Z,88.96
2022-11-09T18:12:35.031Z,89.16
2022-11-09T18:15:56.244Z,89.68
2022-11-09T18:19:17.743Z,89.82
2022-11-09T18:22:39.099Z,89.02
2022-11-09T18:26:00.773Z,88.83
2022-11-09T18:29:22.270Z,87.49
2022-11-09T18:32:43.954Z,87.03
2022-11-09T18:36:09.376Z,87.71
2022-11-09T18:39:31.223Z,87.85
2022-11-09T18:43:03.734Z,87.33
2022-11-09T18:46:27.046Z,87.21
2022-11-09T18:49:49.743Z,87.59
2022-11-09T18:53:11.455Z,86.32
2022-11-09T18:56:32.841Z,86.08
2022-11-09T18:59:54.537Z,85.51
2022-11-09T19:03:16.488Z,86.12
2022-11-09T19:06:37.892Z,85.99
2022-11-09T19:09:59.595Z,86.19
2022-11-09T19:13:42.560Z,86.46
2022-11-09T19:17:37.394Z,86.89
2022-11-09T19:20:58.856Z,86.44
2022-11-09T19:24:22.397Z,86.98
2022-11-09T19:27:43.765Z,87.15
2022-11-09T19:31:05.310Z,87.20
2022-11-09T19:34:26.471Z,87.58
2022-11-09T19:37:47.989Z,87.35
2022-11-09T19:41:10.212Z,87.70
2022-11-09T19:44:32.059Z,87.88
2022-11-09T19:47:53.777Z,88.03
2022-11-09T19:51:17.910Z,88.90
2022-11-09T19:54:39.738Z,88.60
2022-11-09T19:58:01.620Z,88.62
2022-11-09T20:01:25.062Z,88.33
2022-11-09T20:04:47.657Z,88.26
2022-11-09T20:08:10.360Z,87.76
2022-11-09T20:11:50.544Z,88.34
2022-11-09T20:15:11.845Z,88.70
2022-11-09T20:18:37.960Z,89.25
2022-11-09T20:22:00.081Z,88.72
2022-11-09T20:25:21.895Z,87.53
2022-11-09T20:28:44.025Z,87.14
2022-11-09T20:32:05.412Z,87.37
2022-11-09T20:35:27.048Z,87.51
2022-11-09T20:38:48.813Z,87.65
2022-11-09T20:42:13.502Z,87.95
2022-11-09T20:45:36.473Z,87.56
2022-11-09T20:48:58.085Z,87.41
2022-11-09T20:52:20.031Z,87.37
2022-11-09T20:55:42.972Z,87.73
2022-11-09T20:59:05.531Z,87.49
2022-11-09T21:02:26.963Z,88.07
2022-11-09T21:05:52.406Z,88.76
2022-11-09T21:09:15.970Z,88.24
2022-11-09T21:12:37.459Z,87.95
2022-11-09T21:16:13.885Z,88.63
2022-11-09T21:19:35.649Z,88.95
2022-11-09T21:23:13.704Z,88.75
2022-11-09T21:26:54.305Z,88.54
2022-11-09T21:30:15.834Z,88.21
2022-11-09T21:33:37.583Z,88.28
2022-11-09T21:36:59.171Z,88.43
2022-11-09T21:40:20.698Z,88.97
2022-11-09T21:43:41.620Z,88.88
2022-11-09T21:47:03.397Z,89.19
2022-11-09T21:50:24.492Z,88.93
2022-11-09T21:53:46.694Z,88.03
2022-11-09T21:57:07.946Z,88.07
2022-11-09T22:00:29.028Z,88.18
2022-11-09T22:03:50.723Z,88.12
2022-11-09T22:07:11.834Z,87.92
2022-11-09T22:10:33.411Z,88.05
2022-11-09T22:14:12.628Z,88.14
2022-11-09T22:17:34.011Z,88.50
2022-11-09T22:20:56.862Z,88.72
2022-11-09T22:24:17.969Z,88.75
2022-11-09T22:27:39.132Z,88.26
2022-11-09T22:31:07.744Z,88.44
2022-11-09T22:34:29.139Z,88.86
2022-11-09T22:37:50.294Z,89.16
2022-11-09T22:41:14.354Z,88.84
2022-11-09T22:44:35.843Z,88.61
2022-11-09T22:47:56.985Z,88.64
2022-11-09T22:51:19.442Z,88.45
2022-11-09T22:54:40.402Z,88.07
2022-11-09T22:58:01.640Z,87.68
2022-11-09T23:01:23.008Z,88.18
2022-11-09T23:04:44.104Z,87.53
2022-11-09T23:08:05.871Z,88.09
2022-11-09T23:11:26.859Z,88.12
2022-11-09T23:15:05.871Z,87.69
2022-11-09T23:18:46.168Z,88.34
2022-11-09T23:22:07.600Z,88.76
2022-11-09T23:25:47.869Z,88.76
2022-11-09T23:29:09.018Z,88.23
2022-11-09T23:32:30.359Z,88.61
2022-11-09T23:35:51.238Z,88.79
2022-11-09T23:39:12.215Z,88.67
2022-11-09T23:42:33.708Z,88.89
2022-11-09T23:45:55.544Z,89.01
2022-11-09T23:49:16.852Z,88.50
2022-11-09T23:52:37.952Z,87.78
2022-11-09T23:56:05.999Z,88.25
2022-11-09T23:59:27.241Z,88.68
